sensor_id;sensor_type;location;lat;lon;timestamp;P1;durP1;ratioP1;P2;durP2;ratioP2
82640;SDS011;72322;41.918;22.414;2024-01-30T00:02:11;23.10;;;11.48;;
82640;SDS011;72322;41.918;22.414;2024-01-30T00:04:37;26.67;;;12.27;;
82640;SDS011;72322;41.918;22.414;2024-01-30T00:07:03;30.13;;;14.40;;
82640;SDS011;72322;41.918;22.414;2024-01-30T00:09:29;24.98;;;10.95;;
82640;SDS011;72322;41.918;22.414;2024-01-30T00:11:56;22.67;;;10.85;;
82640;SDS011;72322;41.918;22.414;2024-01-30T00:14:22;19.92;;;9.70;;
82640;SDS011;72322;41.918;22.414;2024-01-30T00:16:48;21.38;;;9.77;;
82640;SDS011;72322;41.918;22.414;2024-01-30T00:19:14;20.23;;;11.18;;
82640;SDS011;72322;41.918;22.414;2024-01-30T00:21:40;21.70;;;11.48;;
82640;SDS011;72322;41.918;22.414;2024-01-30T00:24:07;21.33;;;10.30;;
82640;SDS011;72322;41.918;22.414;2024-01-30T00:26:33;15.75;;;8.70;;
82640;SDS011;72322;41.918;22.414;2024-01-30T00:28:59;14.70;;;8.75;;
82640;SDS011;72322;41.918;22.414;2024-01-30T00:31:25;13.05;;;7.70;;
82640;SDS011;72322;41.918;22.414;2024-01-30T00:33:51;9.48;;;5.95;;
82640;SDS011;72322;41.918;22.414;2024-01-30T00:36:18;7.22;;;5.20;;
82640;SDS011;72322;41.918;22.414;2024-01-30T00:38:44;7.72;;;4.82;;
82640;SDS011;72322;41.918;22.414;2024-01-30T00:41:10;11.88;;;5.07;;
82640;SDS011;72322;41.918;22.414;2024-01-30T00:43:36;11.07;;;4.70;;
82640;SDS011;72322;41.918;22.414;2024-01-30T00:46:02;6.55;;;4.00;;
82640;SDS011;72322;41.918;22.414;2024-01-30T00:48:28;10.00;;;5.55;;
82640;SDS011;72322;41.918;22.414;2024-01-30T00:50:55;12.02;;;6.93;;
82640;SDS011;72322;41.918;22.414;2024-01-30T00:53:21;14.82;;;7.40;;
82640;SDS011;72322;41.918;22.414;2024-01-30T00:55:47;8.35;;;4.13;;
82640;SDS011;72322;41.918;22.414;2024-01-30T00:58:13;12.73;;;6.38;;
82640;SDS011;72322;41.918;22.414;2024-01-30T01:00:39;13.63;;;5.40;;
82640;SDS011;72322;41.918;22.414;2024-01-30T01:03:05;9.77;;;4.50;;
82640;SDS011;72322;41.918;22.414;2024-01-30T01:05:31;9.13;;;5.15;;
82640;SDS011;72322;41.918;22.414;2024-01-30T01:07:57;7.85;;;3.53;;
82640;SDS011;72322;41.918;22.414;2024-01-30T01:10:23;6.75;;;3.30;;
82640;SDS011;72322;41.918;22.414;2024-01-30T01:12:49;7.53;;;3.38;;
82640;SDS011;72322;41.918;22.414;2024-01-30T01:15:16;7.25;;;3.10;;
82640;SDS011;72322;41.918;22.414;2024-01-30T01:17:42;6.30;;;3.03;;
82640;SDS011;72322;41.918;22.414;2024-01-30T01:20:08;6.15;;;3.58;;
82640;SDS011;72322;41.918;22.414;2024-01-30T01:22:35;11.35;;;4.32;;
82640;SDS011;72322;41.918;22.414;2024-01-30T01:25:04;7.20;;;4.25;;
82640;SDS011;72322;41.918;22.414;2024-01-30T01:27:33;10.05;;;6.05;;
82640;SDS011;72322;41.918;22.414;2024-01-30T01:29:59;8.18;;;4.68;;
82640;SDS011;72322;41.918;22.414;2024-01-30T01:32:26;6.22;;;3.30;;
82640;SDS011;72322;41.918;22.414;2024-01-30T01:34:52;5.07;;;2.75;;
82640;SDS011;72322;41.918;22.414;2024-01-30T01:37:19;4.93;;;2.50;;
82640;SDS011;72322;41.918;22.414;2024-01-30T01:39:47;7.05;;;3.08;;
82640;SDS011;72322;41.918;22.414;2024-01-30T01:42:13;5.05;;;2.53;;
82640;SDS011;72322;41.918;22.414;2024-01-30T01:44:39;6.60;;;4.03;;
82640;SDS011;72322;41.918;22.414;2024-01-30T01:47:05;10.48;;;4.38;;
82640;SDS011;72322;41.918;22.414;2024-01-30T01:49:31;6.97;;;4.38;;
82640;SDS011;72322;41.918;22.414;2024-01-30T01:51:58;7.85;;;4.13;;
82640;SDS011;72322;41.918;22.414;2024-01-30T01:54:25;9.60;;;3.38;;
82640;SDS011;72322;41.918;22.414;2024-01-30T01:56:52;5.82;;;3.13;;
82640;SDS011;72322;41.918;22.414;2024-01-30T01:59:20;7.72;;;3.90;;
82640;SDS011;72322;41.918;22.414;2024-01-30T02:01:46;9.43;;;4.85;;
82640;SDS011;72322;41.918;22.414;2024-01-30T02:04:14;6.80;;;3.65;;
82640;SDS011;72322;41.918;22.414;2024-01-30T02:06:40;7.95;;;4.22;;
82640;SDS011;72322;41.918;22.414;2024-01-30T02:09:06;8.40;;;4.10;;
82640;SDS011;72322;41.918;22.414;2024-01-30T02:11:34;9.43;;;4.00;;
82640;SDS011;72322;41.918;22.414;2024-01-30T02:14:03;6.40;;;3.38;;
82640;SDS011;72322;41.918;22.414;2024-01-30T02:16:30;4.05;;;2.65;;
82640;SDS011;72322;41.918;22.414;2024-01-30T02:18:56;4.95;;;3.42;;
82640;SDS011;72322;41.918;22.414;2024-01-30T02:21:22;7.43;;;3.53;;
82640;SDS011;72322;41.918;22.414;2024-01-30T02:23:48;4.90;;;3.08;;
82640;SDS011;72322;41.918;22.414;2024-01-30T02:26:15;3.88;;;2.70;;
82640;SDS011;72322;41.918;22.414;2024-01-30T02:28:41;5.00;;;2.50;;
82640;SDS011;72322;41.918;22.414;2024-01-30T02:31:07;4.50;;;2.25;;
82640;SDS011;72322;41.918;22.414;2024-01-30T02:33:33;5.75;;;2.70;;
82640;SDS011;72322;41.918;22.414;2024-01-30T02:35:59;6.90;;;4.05;;
82640;SDS011;72322;41.918;22.414;2024-01-30T02:38:25;8.57;;;4.75;;
82640;SDS011;72322;41.918;22.414;2024-01-30T02:40:52;5.65;;;3.60;;
82640;SDS011;72322;41.918;22.414;2024-01-30T02:43:18;4.85;;;3.03;;
82640;SDS011;72322;41.918;22.414;2024-01-30T02:45:44;6.35;;;3.15;;
82640;SDS011;72322;41.918;22.414;2024-01-30T02:48:10;4.82;;;3.15;;
82640;SDS011;72322;41.918;22.414;2024-01-30T02:50:36;5.15;;;3.35;;
82640;SDS011;72322;41.918;22.414;2024-01-30T02:53:02;8.55;;;3.10;;
82640;SDS011;72322;41.918;22.414;2024-01-30T02:55:28;5.25;;;2.90;;
82640;SDS011;72322;41.918;22.414;2024-01-30T02:57:55;4.28;;;2.33;;
82640;SDS011;72322;41.918;22.414;2024-01-30T03:00:21;3.67;;;2.17;;
82640;SDS011;72322;41.918;22.414;2024-01-30T03:02:47;5.03;;;2.53;;
82640;SDS011;72322;41.918;22.414;2024-01-30T03:05:13;5.88;;;2.40;;
82640;SDS011;72322;41.918;22.414;2024-01-30T03:07:39;6.75;;;3.22;;
82640;SDS011;72322;41.918;22.414;2024-01-30T03:10:05;13.90;;;6.72;;
82640;SDS011;72322;41.918;22.414;2024-01-30T03:12:32;7.78;;;3.55;;
82640;SDS011;72322;41.918;22.414;2024-01-30T03:14:58;6.50;;;2.88;;
82640;SDS011;72322;41.918;22.414;2024-01-30T03:17:24;5.93;;;3.17;;
82640;SDS011;72322;41.918;22.414;2024-01-30T03:19:50;8.75;;;3.47;;
82640;SDS011;72322;41.918;22.414;2024-01-30T03:22:16;6.93;;;3.45;;
82640;SDS011;72322;41.918;22.414;2024-01-30T03:24:42;5.78;;;3.13;;
82640;SDS011;72322;41.918;22.414;2024-01-30T03:27:09;6.57;;;3.28;;
82640;SDS011;72322;41.918;22.414;2024-01-30T03:29:35;5.80;;;3.13;;
82640;SDS011;72322;41.918;22.414;2024-01-30T03:32:01;3.40;;;2.08;;
82640;SDS011;72322;41.918;22.414;2024-01-30T03:34:28;5.15;;;2.53;;
82640;SDS011;72322;41.918;22.414;2024-01-30T03:36:55;3.15;;;2.40;;
82640;SDS011;72322;41.918;22.414;2024-01-30T03:39:21;3.63;;;2.28;;
82640;SDS011;72322;41.918;22.414;2024-01-30T03:41:47;3.28;;;1.80;;
82640;SDS011;72322;41.918;22.414;2024-01-30T03:44:13;4.18;;;1.95;;
82640;SDS011;72322;41.918;22.414;2024-01-30T03:46:39;1.98;;;1.40;;
82640;SDS011;72322;41.918;22.414;2024-01-30T03:49:05;2.45;;;1.60;;
82640;SDS011;72322;41.918;22.414;2024-01-30T03:51:31;2.42;;;1.80;;
82640;SDS011;72322;41.918;22.414;2024-01-30T03:53:57;4.05;;;1.67;;
82640;SDS011;72322;41.918;22.414;2024-01-30T03:56:23;3.22;;;2.03;;
82640;SDS011;72322;41.918;22.414;2024-01-30T03:58:51;4.63;;;2.72;;
82640;SDS011;72322;41.918;22.414;2024-01-30T04:01:17;5.70;;;2.50;;
82640;SDS011;72322;41.918;22.414;2024-01-30T04:03:43;4.07;;;2.55;;
82640;SDS011;72322;41.918;22.414;2024-01-30T04:06:10;4.25;;;2.15;;
82640;SDS011;72322;41.918;22.414;2024-01-30T04:08:36;5.07;;;3.40;;
82640;SDS011;72322;41.918;22.414;2024-01-30T04:11:03;4.13;;;2.15;;
82640;SDS011;72322;41.918;22.414;2024-01-30T04:13:30;5.03;;;2.72;;
82640;SDS011;72322;41.918;22.414;2024-01-30T04:15:58;4.00;;;2.50;;
82640;SDS011;72322;41.918;22.414;2024-01-30T04:18:25;3.88;;;2.83;;
82640;SDS011;72322;41.918;22.414;2024-01-30T04:20:51;3.85;;;2.50;;
82640;SDS011;72322;41.918;22.414;2024-01-30T04:23:17;5.35;;;3.05;;
82640;SDS011;72322;41.918;22.414;2024-01-30T04:25:43;6.97;;;2.92;;
82640;SDS011;72322;41.918;22.414;2024-01-30T04:28:09;7.45;;;3.50;;
82640;SDS011;72322;41.918;22.414;2024-01-30T04:30:37;8.60;;;4.63;;
82640;SDS011;72322;41.918;22.414;2024-01-30T04:33:03;6.00;;;3.42;;
82640;SDS011;72322;41.918;22.414;2024-01-30T04:35:29;5.25;;;3.22;;
82640;SDS011;72322;41.918;22.414;2024-01-30T04:37:55;5.72;;;2.78;;
82640;SDS011;72322;41.918;22.414;2024-01-30T04:40:22;5.68;;;2.95;;
82640;SDS011;72322;41.918;22.414;2024-01-30T04:42:48;7.00;;;3.10;;
82640;SDS011;72322;41.918;22.414;2024-01-30T04:45:14;5.97;;;3.80;;
82640;SDS011;72322;41.918;22.414;2024-01-30T04:47:40;9.23;;;4.47;;
82640;SDS011;72322;41.918;22.414;2024-01-30T04:50:06;8.38;;;4.18;;
82640;SDS011;72322;41.918;22.414;2024-01-30T04:52:33;9.50;;;4.72;;
82640;SDS011;72322;41.918;22.414;2024-01-30T04:54:59;8.10;;;3.42;;
82640;SDS011;72322;41.918;22.414;2024-01-30T04:57:26;8.43;;;4.35;;
82640;SDS011;72322;41.918;22.414;2024-01-30T04:59:52;6.13;;;3.70;;
82640;SDS011;72322;41.918;22.414;2024-01-30T05:02:18;5.78;;;3.17;;
82640;SDS011;72322;41.918;22.414;2024-01-30T05:04:44;7.55;;;4.75;;
82640;SDS011;72322;41.918;22.414;2024-01-30T05:07:10;4.05;;;2.53;;
82640;SDS011;72322;41.918;22.414;2024-01-30T05:09:36;8.60;;;4.03;;
82640;SDS011;72322;41.918;22.414;2024-01-30T05:12:02;5.93;;;3.90;;
82640;SDS011;72322;41.918;22.414;2024-01-30T05:14:28;5.82;;;3.47;;
82640;SDS011;72322;41.918;22.414;2024-01-30T05:16:54;4.53;;;3.47;;
82640;SDS011;72322;41.918;22.414;2024-01-30T05:19:20;5.65;;;3.22;;
82640;SDS011;72322;41.918;22.414;2024-01-30T05:21:48;7.43;;;3.67;;
82640;SDS011;72322;41.918;22.414;2024-01-30T05:24:14;8.38;;;4.40;;
82640;SDS011;72322;41.918;22.414;2024-01-30T05:26:40;5.25;;;3.42;;
82640;SDS011;72322;41.918;22.414;2024-01-30T05:29:06;4.43;;;2.53;;
82640;SDS011;72322;41.918;22.414;2024-01-30T05:31:33;5.75;;;2.78;;
82640;SDS011;72322;41.918;22.414;2024-01-30T05:33:59;9.30;;;4.35;;
82640;SDS011;72322;41.918;22.414;2024-01-30T05:36:25;8.20;;;4.47;;
82640;SDS011;72322;41.918;22.414;2024-01-30T05:38:52;7.85;;;4.40;;
82640;SDS011;72322;41.918;22.414;2024-01-30T05:41:18;7.28;;;3.83;;
82640;SDS011;72322;41.918;22.414;2024-01-30T05:43:44;5.18;;;3.10;;
82640;SDS011;72322;41.918;22.414;2024-01-30T05:46:10;12.32;;;5.30;;
82640;SDS011;72322;41.918;22.414;2024-01-30T05:48:36;14.80;;;6.60;;
82640;SDS011;72322;41.918;22.414;2024-01-30T05:51:02;10.48;;;5.18;;
82640;SDS011;72322;41.918;22.414;2024-01-30T05:53:29;63.85;;;25.17;;
82640;SDS011;72322;41.918;22.414;2024-01-30T05:55:55;13.70;;;5.75;;
82640;SDS011;72322;41.918;22.414;2024-01-30T05:58:21;21.30;;;8.65;;
82640;SDS011;72322;41.918;22.414;2024-01-30T06:00:47;23.55;;;10.25;;
82640;SDS011;72322;41.918;22.414;2024-01-30T06:03:13;9.45;;;5.22;;
82640;SDS011;72322;41.918;22.414;2024-01-30T06:05:39;13.65;;;7.47;;
82640;SDS011;72322;41.918;22.414;2024-01-30T06:08:05;8.65;;;4.40;;
82640;SDS011;72322;41.918;22.414;2024-01-30T06:10:31;14.18;;;6.05;;
82640;SDS011;72322;41.918;22.414;2024-01-30T06:12:57;16.30;;;9.45;;
82640;SDS011;72322;41.918;22.414;2024-01-30T06:15:24;27.70;;;12.63;;
82640;SDS011;72322;41.918;22.414;2024-01-30T06:17:51;10.45;;;5.18;;
82640;SDS011;72322;41.918;22.414;2024-01-30T06:20:17;12.38;;;6.93;;
82640;SDS011;72322;41.918;22.414;2024-01-30T06:22:43;11.82;;;5.55;;
82640;SDS011;72322;41.918;22.414;2024-01-30T06:25:09;17.23;;;8.30;;
82640;SDS011;72322;41.918;22.414;2024-01-30T06:27:37;33.10;;;20.35;;
82640;SDS011;72322;41.918;22.414;2024-01-30T06:30:04;17.83;;;8.60;;
82640;SDS011;72322;41.918;22.414;2024-01-30T06:32:30;20.08;;;9.13;;
82640;SDS011;72322;41.918;22.414;2024-01-30T06:35:02;39.28;;;21.23;;
82640;SDS011;72322;41.918;22.414;2024-01-30T06:37:28;19.13;;;9.07;;
82640;SDS011;72322;41.918;22.414;2024-01-30T06:39:54;15.90;;;7.78;;
82640;SDS011;72322;41.918;22.414;2024-01-30T06:42:20;19.98;;;10.25;;
82640;SDS011;72322;41.918;22.414;2024-01-30T06:44:46;21.05;;;10.30;;
82640;SDS011;72322;41.918;22.414;2024-01-30T06:47:13;11.45;;;6.03;;
82640;SDS011;72322;41.918;22.414;2024-01-30T06:49:39;16.25;;;7.65;;
82640;SDS011;72322;41.918;22.414;2024-01-30T06:52:07;9.23;;;5.07;;
82640;SDS011;72322;41.918;22.414;2024-01-30T06:54:33;6.00;;;4.22;;
82640;SDS011;72322;41.918;22.414;2024-01-30T06:57:00;5.70;;;3.47;;
82640;SDS011;72322;41.918;22.414;2024-01-30T06:59:26;12.20;;;6.32;;
82640;SDS011;72322;41.918;22.414;2024-01-30T07:01:52;7.32;;;3.95;;
82640;SDS011;72322;41.918;22.414;2024-01-30T07:04:18;5.10;;;2.70;;
82640;SDS011;72322;41.918;22.414;2024-01-30T07:06:44;7.65;;;3.78;;
82640;SDS011;72322;41.918;22.414;2024-01-30T07:09:10;5.40;;;3.42;;
82640;SDS011;72322;41.918;22.414;2024-01-30T07:11:36;8.70;;;4.20;;
82640;SDS011;72322;41.918;22.414;2024-01-30T07:14:02;6.22;;;3.78;;
82640;SDS011;72322;41.918;22.414;2024-01-30T07:16:29;4.50;;;2.53;;
82640;SDS011;72322;41.918;22.414;2024-01-30T07:18:55;5.80;;;2.67;;
82640;SDS011;72322;41.918;22.414;2024-01-30T07:21:22;5.13;;;3.30;;
82640;SDS011;72322;41.918;22.414;2024-01-30T07:23:53;4.95;;;2.95;;
82640;SDS011;72322;41.918;22.414;2024-01-30T07:26:19;4.28;;;3.03;;
82640;SDS011;72322;41.918;22.414;2024-01-30T07:28:48;8.85;;;4.88;;
82640;SDS011;72322;41.918;22.414;2024-01-30T07:31:15;6.85;;;4.10;;
82640;SDS011;72322;41.918;22.414;2024-01-30T07:33:41;8.40;;;4.43;;
82640;SDS011;72322;41.918;22.414;2024-01-30T07:36:07;6.95;;;3.67;;
82640;SDS011;72322;41.918;22.414;2024-01-30T07:38:33;5.07;;;3.38;;
82640;SDS011;72322;41.918;22.414;2024-01-30T07:40:59;5.45;;;3.08;;
82640;SDS011;72322;41.918;22.414;2024-01-30T07:43:25;5.35;;;3.35;;
82640;SDS011;72322;41.918;22.414;2024-01-30T07:45:51;8.38;;;4.57;;
82640;SDS011;72322;41.918;22.414;2024-01-30T07:48:18;7.28;;;4.15;;
82640;SDS011;72322;41.918;22.414;2024-01-30T07:50:44;8.77;;;3.10;;
82640;SDS011;72322;41.918;22.414;2024-01-30T07:53:10;8.18;;;4.40;;
82640;SDS011;72322;41.918;22.414;2024-01-30T07:55:36;6.28;;;3.78;;
82640;SDS011;72322;41.918;22.414;2024-01-30T07:58:02;6.38;;;3.67;;
82640;SDS011;72322;41.918;22.414;2024-01-30T08:00:29;7.32;;;3.80;;
82640;SDS011;72322;41.918;22.414;2024-01-30T08:02:55;7.22;;;3.67;;
82640;SDS011;72322;41.918;22.414;2024-01-30T08:05:22;6.57;;;4.15;;
82640;SDS011;72322;41.918;22.414;2024-01-30T08:07:49;8.05;;;3.03;;
82640;SDS011;72322;41.918;22.414;2024-01-30T08:10:15;5.47;;;3.03;;
82640;SDS011;72322;41.918;22.414;2024-01-30T08:12:43;4.35;;;3.10;;
82640;SDS011;72322;41.918;22.414;2024-01-30T08:15:09;6.07;;;2.53;;
82640;SDS011;72322;41.918;22.414;2024-01-30T08:17:35;6.60;;;2.55;;
82640;SDS011;72322;41.918;22.414;2024-01-30T08:20:01;3.03;;;2.20;;
82640;SDS011;72322;41.918;22.414;2024-01-30T08:22:29;3.72;;;2.33;;
82640;SDS011;72322;41.918;22.414;2024-01-30T08:24:55;4.60;;;3.00;;
82640;SDS011;72322;41.918;22.414;2024-01-30T08:27:21;7.40;;;4.10;;
82640;SDS011;72322;41.918;22.414;2024-01-30T08:29:47;5.28;;;2.83;;
82640;SDS011;72322;41.918;22.414;2024-01-30T08:32:15;6.80;;;3.55;;
82640;SDS011;72322;41.918;22.414;2024-01-30T08:34:41;9.00;;;3.13;;
82640;SDS011;72322;41.918;22.414;2024-01-30T08:37:07;4.55;;;2.67;;
82640;SDS011;72322;41.918;22.414;2024-01-30T08:39:33;6.05;;;3.72;;
82640;SDS011;72322;41.918;22.414;2024-01-30T08:41:59;9.73;;;2.95;;
82640;SDS011;72322;41.918;22.414;2024-01-30T08:44:25;7.47;;;3.75;;
82640;SDS011;72322;41.918;22.414;2024-01-30T08:46:52;5.07;;;3.33;;
82640;SDS011;72322;41.918;22.414;2024-01-30T08:49:19;5.72;;;3.15;;
82640;SDS011;72322;41.918;22.414;2024-01-30T08:51:45;5.72;;;2.70;;
82640;SDS011;72322;41.918;22.414;2024-01-30T08:54:12;7.72;;;3.00;;
82640;SDS011;72322;41.918;22.414;2024-01-30T08:56:38;5.50;;;2.72;;
82640;SDS011;72322;41.918;22.414;2024-01-30T08:59:04;3.50;;;2.63;;
82640;SDS011;72322;41.918;22.414;2024-01-30T09:01:30;4.60;;;2.90;;
82640;SDS011;72322;41.918;22.414;2024-01-30T09:03:56;4.97;;;2.78;;
82640;SDS011;72322;41.918;22.414;2024-01-30T09:06:22;9.43;;;4.65;;
82640;SDS011;72322;41.918;22.414;2024-01-30T09:08:53;6.43;;;3.00;;
82640;SDS011;72322;41.918;22.414;2024-01-30T09:11:19;5.70;;;3.10;;
82640;SDS011;72322;41.918;22.414;2024-01-30T09:13:45;5.55;;;2.95;;
82640;SDS011;72322;41.918;22.414;2024-01-30T09:16:11;5.50;;;2.60;;
82640;SDS011;72322;41.918;22.414;2024-01-30T09:18:37;5.70;;;2.70;;
82640;SDS011;72322;41.918;22.414;2024-01-30T09:21:04;4.28;;;2.85;;
82640;SDS011;72322;41.918;22.414;2024-01-30T09:23:30;5.22;;;2.95;;
82640;SDS011;72322;41.918;22.414;2024-01-30T09:25:56;8.60;;;3.65;;
82640;SDS011;72322;41.918;22.414;2024-01-30T09:28:22;5.78;;;3.58;;
82640;SDS011;72322;41.918;22.414;2024-01-30T09:30:48;6.43;;;3.63;;
82640;SDS011;72322;41.918;22.414;2024-01-30T09:33:14;7.95;;;2.88;;
82640;SDS011;72322;41.918;22.414;2024-01-30T09:35:40;5.07;;;2.88;;
82640;SDS011;72322;41.918;22.414;2024-01-30T09:38:06;4.95;;;2.92;;
82640;SDS011;72322;41.918;22.414;2024-01-30T09:40:33;3.65;;;2.40;;
82640;SDS011;72322;41.918;22.414;2024-01-30T09:42:59;5.53;;;2.92;;
82640;SDS011;72322;41.918;22.414;2024-01-30T09:45:25;11.13;;;5.82;;
82640;SDS011;72322;41.918;22.414;2024-01-30T09:47:52;8.27;;;2.83;;
82640;SDS011;72322;41.918;22.414;2024-01-30T09:50:18;6.45;;;3.75;;
82640;SDS011;72322;41.918;22.414;2024-01-30T09:52:45;8.45;;;4.20;;
82640;SDS011;72322;41.918;22.414;2024-01-30T09:55:12;7.85;;;3.75;;
82640;SDS011;72322;41.918;22.414;2024-01-30T09:57:38;9.57;;;4.90;;
82640;SDS011;72322;41.918;22.414;2024-01-30T10:00:05;7.05;;;3.65;;
82640;SDS011;72322;41.918;22.414;2024-01-30T10:02:35;7.70;;;3.85;;
82640;SDS011;72322;41.918;22.414;2024-01-30T10:05:01;4.57;;;2.88;;
82640;SDS011;72322;41.918;22.414;2024-01-30T10:07:28;6.07;;;3.67;;
82640;SDS011;72322;41.918;22.414;2024-01-30T10:09:55;4.60;;;2.80;;
82640;SDS011;72322;41.918;22.414;2024-01-30T10:12:22;3.25;;;2.10;;
82640;SDS011;72322;41.918;22.414;2024-01-30T10:14:48;4.00;;;2.03;;
82640;SDS011;72322;41.918;22.414;2024-01-30T10:17:14;4.85;;;2.63;;
82640;SDS011;72322;41.918;22.414;2024-01-30T10:19:40;5.45;;;2.20;;
82640;SDS011;72322;41.918;22.414;2024-01-30T10:22:07;5.28;;;2.22;;
82640;SDS011;72322;41.918;22.414;2024-01-30T10:24:33;5.03;;;2.50;;
82640;SDS011;72322;41.918;22.414;2024-01-30T10:27:00;5.55;;;2.58;;
82640;SDS011;72322;41.918;22.414;2024-01-30T10:29:26;5.80;;;2.20;;
82640;SDS011;72322;41.918;22.414;2024-01-30T10:32:02;7.88;;;2.75;;
82640;SDS011;72322;41.918;22.414;2024-01-30T10:34:29;5.07;;;2.50;;
82640;SDS011;72322;41.918;22.414;2024-01-30T10:37:10;4.28;;;3.35;;
82640;SDS011;72322;41.918;22.414;2024-01-30T10:39:44;3.20;;;2.13;;
82640;SDS011;72322;41.918;22.414;2024-01-30T10:42:13;3.72;;;2.30;;
82640;SDS011;72322;41.918;22.414;2024-01-30T10:47:18;3.90;;;2.15;;
82640;SDS011;72322;41.918;22.414;2024-01-30T10:49:47;4.88;;;2.50;;
82640;SDS011;72322;41.918;22.414;2024-01-30T10:52:13;4.78;;;2.70;;
82640;SDS011;72322;41.918;22.414;2024-01-30T10:54:42;3.88;;;1.98;;
82640;SDS011;72322;41.918;22.414;2024-01-30T10:57:10;5.88;;;2.00;;
82640;SDS011;72322;41.918;22.414;2024-01-30T10:59:37;3.20;;;1.92;;
82640;SDS011;72322;41.918;22.414;2024-01-30T11:02:03;5.13;;;2.50;;
82640;SDS011;72322;41.918;22.414;2024-01-30T11:04:40;4.18;;;2.10;;
82640;SDS011;72322;41.918;22.414;2024-01-30T11:07:23;6.30;;;2.67;;
82640;SDS011;72322;41.918;22.414;2024-01-30T11:09:53;6.22;;;3.10;;
82640;SDS011;72322;41.918;22.414;2024-01-30T11:12:22;8.43;;;4.78;;
82640;SDS011;72322;41.918;22.414;2024-01-30T11:14:50;3.42;;;2.28;;
82640;SDS011;72322;41.918;22.414;2024-01-30T11:17:16;6.40;;;3.38;;
82640;SDS011;72322;41.918;22.414;2024-01-30T11:19:42;4.43;;;2.92;;
82640;SDS011;72322;41.918;22.414;2024-01-30T11:22:08;3.20;;;1.83;;
82640;SDS011;72322;41.918;22.414;2024-01-30T11:24:40;3.95;;;2.25;;
82640;SDS011;72322;41.918;22.414;2024-01-30T11:27:09;5.90;;;2.90;;
82640;SDS011;72322;41.918;22.414;2024-01-30T11:29:36;4.97;;;2.75;;
82640;SDS011;72322;41.918;22.414;2024-01-30T11:32:02;3.03;;;1.83;;
82640;SDS011;72322;41.918;22.414;2024-01-30T11:34:28;5.32;;;2.58;;
82640;SDS011;72322;41.918;22.414;2024-01-30T11:36:58;4.38;;;2.33;;
82640;SDS011;72322;41.918;22.414;2024-01-30T11:39:25;6.93;;;3.20;;
82640;SDS011;72322;41.918;22.414;2024-01-30T11:41:52;5.00;;;2.65;;
82640;SDS011;72322;41.918;22.414;2024-01-30T11:44:21;5.80;;;3.25;;
82640;SDS011;72322;41.918;22.414;2024-01-30T11:46:51;6.13;;;2.78;;
82640;SDS011;72322;41.918;22.414;2024-01-30T11:49:17;3.83;;;2.53;;
82640;SDS011;72322;41.918;22.414;2024-01-30T11:51:47;7.65;;;4.45;;
82640;SDS011;72322;41.918;22.414;2024-01-30T11:54:16;5.65;;;3.35;;
82640;SDS011;72322;41.918;22.414;2024-01-30T11:56:42;5.63;;;2.72;;
82640;SDS011;72322;41.918;22.414;2024-01-30T11:59:08;8.63;;;3.95;;
82640;SDS011;72322;41.918;22.414;2024-01-30T12:01:34;5.90;;;3.20;;
82640;SDS011;72322;41.918;22.414;2024-01-30T12:04:00;5.90;;;2.90;;
82640;SDS011;72322;41.918;22.414;2024-01-30T12:06:27;7.15;;;3.13;;
82640;SDS011;72322;41.918;22.414;2024-01-30T12:08:59;6.03;;;3.42;;
82640;SDS011;72322;41.918;22.414;2024-01-30T12:11:26;4.25;;;2.97;;
82640;SDS011;72322;41.918;22.414;2024-01-30T12:13:52;4.57;;;2.83;;
82640;SDS011;72322;41.918;22.414;2024-01-30T12:16:19;3.60;;;2.50;;
82640;SDS011;72322;41.918;22.414;2024-01-30T12:18:45;5.10;;;2.95;;
82640;SDS011;72322;41.918;22.414;2024-01-30T12:21:12;5.55;;;3.13;;
82640;SDS011;72322;41.918;22.414;2024-01-30T12:23:38;4.68;;;2.85;;
82640;SDS011;72322;41.918;22.414;2024-01-30T12:26:04;5.38;;;3.20;;
82640;SDS011;72322;41.918;22.414;2024-01-30T12:28:32;4.97;;;3.05;;
82640;SDS011;72322;41.918;22.414;2024-01-30T12:31:04;6.72;;;3.30;;
82640;SDS011;72322;41.918;22.414;2024-01-30T12:33:31;4.43;;;2.42;;
82640;SDS011;72322;41.918;22.414;2024-01-30T12:35:57;7.82;;;3.20;;
82640;SDS011;72322;41.918;22.414;2024-01-30T12:38:24;3.03;;;2.13;;
82640;SDS011;72322;41.918;22.414;2024-01-30T12:40:53;3.50;;;2.72;;
82640;SDS011;72322;41.918;22.414;2024-01-30T12:43:21;4.57;;;2.47;;
82640;SDS011;72322;41.918;22.414;2024-01-30T12:45:47;2.72;;;2.22;;
82640;SDS011;72322;41.918;22.414;2024-01-30T12:48:13;3.92;;;2.42;;
82640;SDS011;72322;41.918;22.414;2024-01-30T12:50:40;4.03;;;2.13;;
82640;SDS011;72322;41.918;22.414;2024-01-30T12:53:07;2.80;;;2.00;;
82640;SDS011;72322;41.918;22.414;2024-01-30T12:55:34;4.43;;;2.50;;
82640;SDS011;72322;41.918;22.414;2024-01-30T12:58:00;4.18;;;2.83;;
82640;SDS011;72322;41.918;22.414;2024-01-30T13:00:26;4.93;;;3.42;;
82640;SDS011;72322;41.918;22.414;2024-01-30T13:02:52;5.57;;;3.72;;
82640;SDS011;72322;41.918;22.414;2024-01-30T13:05:18;5.05;;;3.53;;
82640;SDS011;72322;41.918;22.414;2024-01-30T13:07:45;5.95;;;3.28;;
82640;SDS011;72322;41.918;22.414;2024-01-30T13:10:11;6.57;;;3.83;;
82640;SDS011;72322;41.918;22.414;2024-01-30T13:12:38;5.32;;;3.42;;
82640;SDS011;72322;41.918;22.414;2024-01-30T13:15:04;7.60;;;4.65;;
82640;SDS011;72322;41.918;22.414;2024-01-30T13:17:30;6.68;;;3.95;;
82640;SDS011;72322;41.918;22.414;2024-01-30T13:19:56;8.52;;;3.75;;
82640;SDS011;72322;41.918;22.414;2024-01-30T13:22:23;7.28;;;5.18;;
82640;SDS011;72322;41.918;22.414;2024-01-30T13:24:49;6.25;;;4.88;;
82640;SDS011;72322;41.918;22.414;2024-01-30T13:27:15;7.80;;;4.72;;
82640;SDS011;72322;41.918;22.414;2024-01-30T13:29:42;7.75;;;4.80;;
82640;SDS011;72322;41.918;22.414;2024-01-30T13:32:08;9.35;;;5.22;;
82640;SDS011;72322;41.918;22.414;2024-01-30T13:34:34;7.57;;;4.88;;
82640;SDS011;72322;41.918;22.414;2024-01-30T13:37:00;6.88;;;4.50;;
82640;SDS011;72322;41.918;22.414;2024-01-30T13:39:26;8.73;;;5.22;;
82640;SDS011;72322;41.918;22.414;2024-01-30T13:44:20;4.95;;;3.00;;
82640;SDS011;72322;41.918;22.414;2024-01-30T13:46:46;5.90;;;3.47;;
82640;SDS011;72322;41.918;22.414;2024-01-30T13:49:12;7.70;;;3.92;;
82640;SDS011;72322;41.918;22.414;2024-01-30T13:51:38;4.03;;;2.88;;
82640;SDS011;72322;41.918;22.414;2024-01-30T13:54:04;6.03;;;3.38;;
82640;SDS011;72322;41.918;22.414;2024-01-30T13:56:30;6.88;;;3.97;;
82640;SDS011;72322;41.918;22.414;2024-01-30T13:58:56;6.25;;;4.13;;
82640;SDS011;72322;41.918;22.414;2024-01-30T14:01:22;7.47;;;3.97;;
82640;SDS011;72322;41.918;22.414;2024-01-30T14:03:49;6.97;;;3.72;;
82640;SDS011;72322;41.918;22.414;2024-01-30T14:06:15;7.03;;;4.63;;
82640;SDS011;72322;41.918;22.414;2024-01-30T14:08:41;8.93;;;5.22;;
82640;SDS011;72322;41.918;22.414;2024-01-30T14:11:07;7.00;;;4.50;;
82640;SDS011;72322;41.918;22.414;2024-01-30T14:13:33;6.35;;;4.13;;
82640;SDS011;72322;41.918;22.414;2024-01-30T14:16:00;6.78;;;3.92;;
82640;SDS011;72322;41.918;22.414;2024-01-30T14:18:26;7.57;;;4.45;;
82640;SDS011;72322;41.918;22.414;2024-01-30T14:20:52;4.65;;;3.78;;
82640;SDS011;72322;41.918;22.414;2024-01-30T14:23:19;7.13;;;4.65;;
82640;SDS011;72322;41.918;22.414;2024-01-30T14:25:46;7.25;;;4.47;;
82640;SDS011;72322;41.918;22.414;2024-01-30T14:28:12;7.15;;;4.45;;
82640;SDS011;72322;41.918;22.414;2024-01-30T14:30:38;7.05;;;4.32;;
82640;SDS011;72322;41.918;22.414;2024-01-30T14:33:05;8.95;;;5.45;;